Latest Weather Observations for Amberley

IDQ60901

Issued at 5:55 pm EST Monday 24 November 2014 (issued every 10 minutes, with the page automatically refreshed every 10 minutes)

About weather observations | Map of Brisbane area stations | Latest observations for Brisbane area | Other Formats
Station Details ID: 040004 Name: AMBERLEY AMO Lat: -27.63 Lon: 152.71 Height: 24.2 m
Data from the previous 72 hours. | See also: Recent months at Amberley
Date/Time
EST
Tmp

°C
App
Tmp
°C
Dew
Point
°C
Rel
Hum
%
Delta-T

°C
Wind Press
QNH
hPa
Press
MSL
hPa
Rain
since
9 am
mm
Dir
 
Spd
km/h
Gust
km/h
Spd
kts
Gust
kts
24/05:30pm 28.7 25.9 19.0 55 6.3 ENE 32 43 17 23 1011.1 - 0.0
24/05:00pm 29.5 27.4 19.0 53 6.8 ENE 28 39 15 21 1010.8 - 0.0
24/04:30pm 30.5 28.1 19.0 50 7.5 ENE 30 37 16 20 1010.7 - 0.0
24/04:00pm 31.3 28.9 19.2 48 7.9 ENE 30 37 16 20 1010.8 - 0.0
24/03:30pm 31.4 29.0 19.2 48 8.0 ENE 30 37 16 20 1011.2 - 0.0
24/03:00pm 31.7 29.8 18.6 45 8.5 ENE 26 33 14 18 1011.6 1011.5 0.0
24/02:30pm 31.5 29.5 18.3 45 8.5 ENE 26 32 14 17 1012.0 - 0.0
24/02:00pm 31.9 30.0 17.7 42 9.1 ENE 24 33 13 18 1012.4 - 0.0
24/01:30pm 32.9 31.6 17.2 39 10.0 ENE 20 30 11 16 1012.9 - 0.0
24/01:00pm 33.1 31.9 16.1 36 10.7 E 17 26 9 14 1013.4 - 0.0
24/12:30pm 33.5 32.9 14.5 31 11.7 WSW 11 19 6 10 1013.7 - 0.0
24/12:00pm 33.0 32.8 14.6 33 11.3 SE 9 19 5 10 1014.2 1014.1 0.0
24/11:30am 33.3 32.3 14.6 32 11.5 SSE 13 19 7 10 1014.7 - 0.0
24/11:00am 32.2 30.7 15.4 36 10.4 SW 17 26 9 14 1015.5 - 0.0
24/10:30am 31.2 30.9 15.5 38 9.7 E 11 26 6 14 1016.1 - 0.0
24/10:00am 30.2 30.2 15.2 40 9.2 ENE 9 15 5 8 1016.6 - 0.0
24/09:30am 29.6 29.1 15.8 43 8.5 ENE 13 19 7 10 1016.9 - 0.0
24/09:00am 28.7 28.6 16.1 46 7.8 N 11 17 6 9 1017.3 1017.2 0.0
24/08:30am 27.2 27.2 16.2 51 6.8 N 11 19 6 10 1017.6 - 0.0
24/08:00am 27.4 28.4 16.4 51 6.8 W 6 13 3 7 1017.8 - 0.0
24/07:30am 25.5 26.2 17.1 59 5.2 WNW 9 15 5 8 1017.9 - 0.0
24/07:00am 25.2 27.3 18.9 68 4.0 NNW 6 11 3 6 1017.8 - 0.0
24/06:00am 22.5 26.1 19.8 85 1.7 CALM 0 0 0 0 1017.4 1017.3 0.0
24/05:30am 20.1 23.4 19.1 94 0.6 CALM 0 0 0 0 1017.2 - 0.0
24/05:00am 19.6 22.8 18.8 95 0.5 CALM 0 0 0 0 1016.9 - 0.0
24/04:30am 19.3 22.1 18.0 92 0.8 CALM 0 0 0 0 1016.7 - 0.0
24/04:00am 20.3 23.5 18.9 92 0.9 CALM 0 0 0 0 1016.2 - 0.0
24/03:30am 19.3 21.6 18.5 95 0.5 E 4 9 2 5 1015.8 - 0.0
24/03:00am 19.9 23.1 18.8 93 0.7 CALM 0 6 0 3 1016.0 1015.9 0.0
24/02:30am 21.6 24.7 19.4 87 1.4 ESE 2 9 1 5 1016.1 - 0.0
24/02:00am 21.8 24.0 19.6 87 1.4 E 7 7 4 4 1015.8 - 0.0
24/01:30am 22.2 24.5 19.9 87 1.5 E 7 9 4 5 1015.9 - 0.0
24/01:00am 22.5 24.4 19.8 85 1.7 E 9 11 5 6 1015.8 - 0.0
24/12:30am 22.9 24.9 19.9 83 1.9 E 9 11 5 6 1016.0 - 0.0
24/12:00am 23.2 24.8 19.9 82 2.1 E 11 13 6 7 1016.3 1016.2 0.0
 
Date/Time
EST
Tmp

°C
App
Tmp
°C
Dew
Point
°C
Rel
Hum
%
Delta-T

°C
Wind Press
QNH
hPa
Press
MSL
hPa
Rain
since
9 am
mm
Dir
 
Spd
km/h
Gust
km/h
Spd
kts
Gust
kts
23/11:30pm 23.8 25.0 19.8 78 2.6 E 13 17 7 9 1016.2 - 0.0
23/11:00pm 23.9 25.0 19.7 77 2.7 E 13 17 7 9 1016.2 - 0.0
23/10:30pm 24.3 24.5 19.3 73 3.2 ENE 17 24 9 13 1015.9 - 0.0
23/10:00pm 24.6 24.2 18.8 70 3.7 ENE 19 26 10 14 1015.8 - 0.0
23/09:30pm 25.0 23.8 18.5 67 4.1 ENE 22 28 12 15 1015.8 - 0.0
23/09:00pm 25.3 24.5 18.5 66 4.3 ENE 20 28 11 15 1015.4 1015.3 0.0
23/08:30pm 25.6 24.9 18.2 63 4.7 E 19 26 10 14 1015.4 - 0.0
23/08:00pm 26.0 25.5 17.7 60 5.2 ESE 17 19 9 10 1015.4 - 0.0
23/07:30pm 26.4 25.0 17.1 56 5.8 E 20 26 11 14 1014.5 - 0.0
23/07:00pm 26.8 24.9 16.6 53 6.3 E 22 30 12 16 1013.9 - 0.0
23/06:30pm 27.4 25.6 17.0 53 6.5 E 22 30 12 16 1013.7 - 0.0
23/06:00pm 28.4 27.0 17.1 50 7.1 ENE 20 28 11 15 1013.0 1012.9 0.0
23/05:30pm 29.2 27.5 17.3 48 7.5 ENE 22 33 12 18 1012.5 - 0.0
23/05:00pm 29.8 26.7 17.5 47 7.8 E 30 37 16 20 1012.2 - 0.0
23/04:30pm 30.4 27.6 18.3 48 7.8 E 30 37 16 20 1012.2 - 0.0
23/04:00pm 31.6 28.5 18.8 46 8.3 E 33 43 18 23 1012.2 - 0.0
23/03:30pm 32.9 30.3 18.6 42 9.3 ENE 30 41 16 22 1012.0 - 0.0
23/03:00pm 33.3 30.3 19.1 43 9.3 E 33 43 18 23 1012.2 1012.1 0.0
23/02:30pm 33.5 30.9 19.4 43 9.3 E 32 39 17 21 1012.8 - 0.0
23/02:00pm 33.7 31.1 19.6 43 9.3 ENE 32 37 17 20 1012.8 - 0.0
23/01:30pm 33.4 31.1 19.4 43 9.2 ENE 30 37 16 20 1013.3 - 0.0
23/01:00pm 33.6 31.9 19.7 44 9.2 ENE 28 35 15 19 1013.8 - 0.0
23/12:30pm 33.5 32.4 19.4 43 9.3 ENE 24 33 13 18 1014.3 - 0.0
23/12:00pm 33.7 32.8 18.3 40 10.0 N 20 26 11 14 1014.8 1014.7 0.0
23/11:30am 33.9 33.8 17.8 38 10.4 NE 15 26 8 14 1015.3 - 0.0
23/11:00am 33.2 33.5 17.0 38 10.3 NE 11 26 6 14 1015.8 - 0.0
23/10:30am 32.0 32.2 15.8 37 10.1 WNW 9 19 5 10 1016.3 - 0.0
23/10:00am 31.7 32.5 17.2 42 9.2 S 9 13 5 7 1016.5 - 0.0
23/09:30am 31.2 30.9 17.4 43 8.8 NW 15 22 8 12 1017.0 - 0.0
23/09:00am 30.6 31.6 17.7 46 8.2 NW 9 22 5 12 1017.2 1017.1 0.0
23/08:30am 29.0 29.6 18.7 53 6.6 NNW 13 17 7 9 1017.2 - 0.0
23/08:00am 28.2 29.8 19.1 57 5.9 N 9 17 5 9 1017.2 - 0.0
23/07:30am 27.0 29.5 19.9 65 4.6 N 6 11 3 6 1017.5 - 0.0
23/07:00am 26.3 29.7 21.0 72 3.5 NE 4 9 2 5 1017.4 - 0.0
23/06:30am 25.4 28.4 21.2 77 2.8 ENE 7 11 4 6 1017.1 - 0.0
23/06:00am 24.8 29.1 21.2 80 2.4 CALM 0 6 0 3 1016.6 1016.5 0.0
23/05:30am 23.3 27.6 21.2 88 1.4 CALM 0 0 0 0 1016.2 - 0.0
23/05:00am 22.9 27.2 21.1 89 1.2 CALM 0 0 0 0 1015.7 - 0.0
23/04:30am 23.0 26.2 21.2 89 1.2 NE 6 7 3 4 1015.2 - 0.0
23/04:00am 23.4 25.9 21.1 87 1.5 ENE 9 11 5 6 1014.8 - 0.0
23/03:30am 23.2 25.7 21.1 88 1.4 ENE 9 11 5 6 1014.5 - 0.0
23/03:00am 23.3 26.3 21.2 88 1.4 E 7 11 4 6 1014.1 1014.0 0.0
23/02:30am 23.4 25.6 21.1 87 1.5 E 11 13 6 7 1013.8 - 0.0
23/02:00am 23.5 26.0 21.1 86 1.6 E 9 13 5 7 1013.9 - 0.0
23/01:30am 24.1 25.9 21.1 83 2.0 ENE 13 17 7 9 1014.1 - 0.0
23/01:00am 24.2 26.4 21.2 83 2.0 E 11 15 6 8 1014.2 - 0.0
23/12:30am 24.4 26.2 21.1 82 2.2 E 13 15 7 8 1014.4 - 0.0
23/12:00am 24.7 27.2 21.1 80 2.4 E 9 11 5 6 1014.6 1014.5 0.0
 
Date/Time
EST
Tmp

°C
App
Tmp
°C
Dew
Point
°C
Rel
Hum
%
Delta-T

°C
Wind Press
QNH
hPa
Press
MSL
hPa
Rain
since
9 am
mm
Dir
 
Spd
km/h
Gust
km/h
Spd
kts
Gust
kts
22/11:30pm 24.9 27.0 20.9 78 2.6 E 11 15 6 8 1014.5 - 0.0
22/11:00pm 25.0 27.1 20.9 78 2.7 E 11 15 6 8 1014.7 - 0.0
22/10:30pm 25.2 26.8 20.8 76 2.9 E 13 19 7 10 1014.6 - 0.0
22/10:00pm 25.5 26.7 20.6 74 3.2 E 15 20 8 11 1014.4 - 0.0
22/09:30pm 25.6 27.2 20.7 74 3.2 E 13 22 7 12 1014.3 - 0.0
22/09:00pm 26.0 26.5 20.8 73 3.4 E 19 24 10 13 1013.9 1013.8 0.0
22/08:30pm 26.3 26.2 20.7 71 3.7 E 22 28 12 15 1013.3 - 0.0
22/08:00pm 26.6 26.9 20.8 70 3.8 E 20 28 11 15 1013.0 - 0.0
22/07:30pm 27.0 27.6 21.0 69 4.0 E 19 26 10 14 1012.7 - 0.0
22/07:00pm 27.6 28.2 21.0 67 4.4 E 19 26 10 14 1012.1 - 0.0
22/06:30pm 28.0 27.8 21.2 66 4.5 E 24 32 13 17 1011.3 - 0.0
22/06:00pm 28.7 27.4 21.4 64 4.9 E 30 39 16 21 1010.8 1010.7 0.0
22/05:30pm 29.5 28.6 21.5 62 5.4 ENE 28 37 15 20 1010.4 - 0.0
22/05:00pm 30.2 29.2 21.3 59 6.0 ENE 28 37 15 20 1010.2 - 0.0
22/04:30pm 31.1 29.7 21.1 55 6.7 ENE 30 39 16 21 1009.8 - 0.0
22/04:00pm 31.9 30.0 21.0 52 7.3 ENE 32 39 17 21 1009.7 - 0.0
22/03:30pm 33.0 30.7 20.6 48 8.3 ENE 33 43 18 23 1009.5 - 0.0
22/03:00pm 34.3 33.0 21.3 46 8.8 NE 30 35 16 19 1009.7 1009.6 0.0
22/02:30pm 33.9 32.2 21.4 48 8.5 E 32 39 17 21 1010.2 - 0.0
22/02:00pm 34.8 34.3 21.4 45 9.1 ENE 26 35 14 19 1010.6 - 0.0
22/01:30pm 34.8 33.5 20.7 43 9.5 ENE 28 35 15 19 1010.8 - 0.0
22/01:00pm 35.8 34.7 20.3 40 10.4 E 26 35 14 19 1011.1 - 0.0
22/12:30pm 36.2 36.8 16.9 32 12.4 N 9 22 5 12 1011.4 - 0.0
22/12:00pm 34.7 34.7 17.3 35 11.2 N 13 24 7 13 1012.2 1012.1 0.0
22/11:30am 34.9 35.5 18.5 38 10.7 N 13 26 7 14 1012.8 - 0.0
22/11:00am 34.4 34.8 18.1 38 10.6 NNW 13 19 7 10 1013.2 - 0.0
22/10:30am 33.9 33.5 18.0 39 10.3 NNW 17 30 9 16 1013.7 - 0.0
22/10:00am 32.9 32.1 18.0 41 9.6 NNW 19 30 10 16 1014.0 - 0.0
22/09:30am 31.9 31.1 18.1 43 8.9 NNW 19 28 10 15 1014.3 - 0.0
22/09:00am 30.6 30.3 18.3 47 7.9 NW 17 26 9 14 1014.5 1014.4 0.0
22/08:30am 29.7 28.0 18.0 49 7.5 NNW 24 33 13 18 1014.7 - 0.0
22/08:00am 28.9 29.1 18.6 53 6.6 NNW 15 26 8 14 1014.9 - 0.0
22/07:30am 28.7 28.5 18.4 53 6.6 NNW 17 24 9 13 1014.7 - 0.0
22/07:00am 27.0 28.8 19.6 64 4.8 NNE 9 17 5 9 1014.8 - 0.0
22/06:30am 25.0 27.7 20.7 77 2.8 ENE 7 9 4 5 1014.5 - 0.0
22/06:00am 24.7 27.5 20.9 79 2.5 ENE 7 9 4 5 1014.1 1014.0 0.0
22/05:30am 23.3 26.3 21.3 88 1.3 NNE 7 9 4 5 1013.7 - 0.0
22/05:00am 22.2 25.1 21.0 93 0.8 NE 7 9 4 5 1013.3 - 0.0
22/04:30am 22.0 26.1 20.8 93 0.8 CALM 0 0 0 0 1012.9 - 0.0
22/04:00am 21.7 25.8 20.8 95 0.6 CALM 0 0 0 0 1012.5 - 0.0
22/03:30am 22.0 25.7 20.8 93 0.8 E 2 7 1 4 1012.1 - 0.0
22/03:00am 22.6 26.9 21.1 91 1.0 CALM 0 0 0 0 1011.8 1011.7 0.0
22/02:30am 23.1 26.3 21.3 90 1.2 SSE 6 7 3 4 1011.6 - 0.0
22/02:00am 23.7 26.8 21.4 87 1.5 S 7 9 4 5 1011.5 - 0.0
22/01:30am 23.8 26.9 21.4 86 1.6 S 7 9 4 5 1011.7 - 0.0
22/01:00am 23.6 26.6 21.3 87 1.5 SE 7 11 4 6 1011.5 - 0.0
22/12:30am 24.4 27.2 21.5 84 1.9 E 9 13 5 7 1011.5 - 0.0
22/12:00am 24.7 28.4 21.4 82 2.2 ENE 4 11 2 6 1011.9 1011.8 0.0
 
Date/Time
EST
Tmp

°C
App
Tmp
°C
Dew
Point
°C
Rel
Hum
%
Delta-T

°C
Wind Press
QNH
hPa
Press
MSL
hPa
Rain
since
9 am
mm
Dir
 
Spd
km/h
Gust
km/h
Spd
kts
Gust
kts
21/11:30pm 25.0 27.8 21.5 81 2.3 E 9 11 5 6 1012.0 - 0.0
21/11:00pm 25.2 29.0 21.6 80 2.4 E 4 9 2 5 1012.2 - 0.0
21/10:30pm 25.3 28.1 21.5 79 2.5 ENE 9 11 5 6 1012.6 - 0.0
21/10:00pm 25.5 28.2 21.4 78 2.7 SSE 9 11 5 6 1013.0 - 0.0
21/09:30pm 25.5 28.2 21.3 77 2.8 SE 9 11 5 6 1013.3 - 0.0
21/09:00pm 25.9 28.2 21.4 76 3.0 E 11 19 6 10 1012.6 1012.5 0.0
21/08:30pm 26.1 28.8 21.4 75 3.1 E 9 11 5 6 1012.4 - 0.0
21/08:00pm 26.4 27.2 21.3 73 3.4 ENE 19 26 10 14 1011.1 - 0.0
21/07:30pm 26.8 26.9 21.2 71 3.7 ENE 22 28 12 15 1011.2 - 0.0
21/07:00pm 27.2 27.0 21.2 69 4.0 ENE 24 32 13 17 1010.7 - 0.0
21/06:30pm 27.8 27.2 21.2 67 4.4 ENE 26 35 14 19 1010.3 - 0.0
21/06:00pm 28.6 27.8 20.9 63 5.1 ENE 26 35 14 19 1009.9 1009.8 0.0

Latest Capital City Observations: Canberra | Sydney | Melbourne | Brisbane | Adelaide | Perth | Hobart | Darwin

Other Formats:

Comma delimited format used in spreadsheet applications
http://www.bom.gov.au/fwo/IDQ60901/IDQ60901.94568.axf

JavaScript Object Notation format (JSON) in row-major order
http://www.bom.gov.au/fwo/IDQ60901/IDQ60901.94568.json